Etusivu
METAR-TAF:

METAR-TAF

Lentoasemat :

Mönchengladbach, Saksa

Leveyspiiri: 51-13-49N, Pituuspiiri: 006-30-16E, korkeus merenpinnasta: 38 m

Tämänhetkinen sää

Tämä raportti tehtiin 34 minuuttia sitten, kello 03.50 UTC
Tuuli 2 kn eri suunnista
Lämpötila -2°C
Ilmanpaine 1026 hPa
Näkyvyys 10 km tai enemmän

METAR: EDLN 190350Z AUTO VRB02KT 9999 // NCD M02/// Q1026

Aika: 05:24 (04:24 UTC)

Sääennuste

Tämä raportti tehtiin 11 tuntia ja 24 minuuttia sitten, kello 17.00 UTC
Ennuste voimassa 18. päivästä klo 18 UTC - 19. päivään klo 03 UTC
Tuuli 7 kn lännestä/luoteesta
Näkyvyys 10 km tai enemmän
Muutamia pilviä 3000 ft:n korkeudessa
Tulossa
18. päivästä klo 19 UTC - 18. päivään klo 22 UTC
Tuuli 3 kn eri suunnista

TAF: EDLN 181700Z 1818/1903 30007KT 9999 FEW030 BECMG 1819/1822 VRB03KT

Säähavainnot ja -ennusteet yli 4000 lentoasemalta (METAR- ja TAF-raportit).

Käytössä olevat sääasemat on merkitty karttaan keltaisilla ja punaisilla pisteillä.

Aseta hiiri pisteen päälle nähdäksesi sääaseman nimen.

Klikkaa sitten nähdäksesi säähavainnot ja -ennusteet.

Kartan vaihtaminen: klikkaa mustalla rastilla varustettuja vihreitä pisteitä, niin voit zoomata sisään; viivalla varustettua vihreää pistettä, niin voit zoomata ulos tai vihreitä nuolia, niin pääset viereisille kartoille.


METAR-TAF: